Time;durP1;ratioP1;P1;durP2;ratioP2;P2;SDS_P1;SDS_P2;PMS_P1;PMS_P2;Temp;Humidity;BMP_temperature;BMP_pressure;BME280_temperature;BME280_humidity;BME280_pressure;Samples;Min_cycle;Max_cycle;Signal;HPM_P1;HPM_P2
2023/07/20 00:01:04;;;;;;;0.00;0.00;;;15.60;83.80;;;;;;4986029;28;20049;-72
2023/07/20 00:03:30;;;;;;;0.00;0.00;;;15.60;83.70;;;;;;5010081;28;20125;-72
2023/07/20 00:05:55;;;;;;;0.00;0.00;;;15.60;83.60;;;;;;4992222;28;20060;-72
2023/07/20 00:08:21;;;;;;;0.00;0.00;;;15.60;83.60;;;;;;5009269;28;20574;-72
2023/07/20 00:10:46;;;;;;;0.00;0.00;;;15.60;83.60;;;;;;5009611;28;20050;-72
2023/07/20 00:13:12;;;;;;;0.00;0.00;;;15.50;83.50;;;;;;5009518;28;20069;-72
2023/07/20 00:15:38;;;;;;;0.00;0.00;;;15.50;83.50;;;;;;4991323;28;20042;-72
2023/07/20 00:18:04;;;;;;;0.00;0.00;;;15.50;83.80;;;;;;4991327;28;20049;-72
2023/07/20 00:20:30;;;;;;;0.00;0.00;;;15.50;83.70;;;;;;4992112;28;20108;-72
2023/07/20 00:22:57;;;;;;;0.00;0.00;;;15.40;83.60;;;;;;5009280;28;20049;-72
2023/07/20 00:25:23;;;;;;;0.00;0.00;;;15.40;83.60;;;;;;4991899;28;20104;-72
2023/07/20 00:27:49;;;;;;;0.00;0.00;;;15.30;83.80;;;;;;5008586;28;20053;-72
2023/07/20 00:30:15;;;;;;;0.00;0.00;;;15.30;83.70;;;;;;4992221;28;20053;-72
2023/07/20 00:32:42;;;;;;;0.00;0.00;;;15.30;83.80;;;;;;4991634;28;20080;-72
2023/07/20 00:35:08;;;;;;;0.00;0.00;;;15.30;83.70;;;;;;5009349;28;20053;-72
2023/07/20 00:37:33;;;;;;;0.00;0.00;;;15.30;83.90;;;;;;5009298;28;20049;-72
2023/07/20 00:39:59;;;;;;;0.00;0.00;;;15.20;83.90;;;;;;4991092;28;20112;-72
2023/07/20 00:42:24;;;;;;;0.00;0.00;;;15.20;83.60;;;;;;5009455;28;20088;-72
2023/07/20 00:44:50;;;;;;;0.00;0.00;;;15.20;83.60;;;;;;5008986;28;20418;-72
2023/07/20 00:47:16;;;;;;;0.00;0.00;;;15.20;83.60;;;;;;4991552;28;20148;-72
2023/07/20 00:49:41;;;;;;;0.00;0.00;;;15.10;83.50;;;;;;5009111;28;20100;-72
2023/07/20 00:52:10;;;;;;;0.00;0.00;;;15.10;83.50;;;;;;5008990;28;20119;-72
2023/07/20 00:54:37;;;;;;;0.00;0.00;;;15.10;83.40;;;;;;4983343;28;20050;-72
2023/07/20 00:57:04;;;;;;;0.00;0.00;;;15.10;83.40;;;;;;4972080;28;20046;-72
2023/07/20 00:59:29;;;;;;;0.00;0.00;;;15.10;83.60;;;;;;4990857;28;20042;-72
2023/07/20 01:01:55;;;;;;;0.00;0.00;;;15.10;83.60;;;;;;5008817;28;20104;-72
2023/07/20 01:04:21;;;;;;;0.00;0.00;;;15.00;83.60;;;;;;4991569;28;20054;-71
2023/07/20 01:07:26;;;;;;;0.00;0.00;;;15.00;83.50;;;;;;5009083;28;20096;-71
2023/07/20 01:09:57;;;;;;;0.00;0.00;;;15.00;83.50;;;;;;4909372;28;20101;-72
2023/07/20 01:12:43;;;;;;;0.00;0.00;;;15.00;83.50;;;;;;4989600;28;20050;-72
2023/07/20 01:15:09;;;;;;;0.00;0.00;;;14.90;83.40;;;;;;4990300;28;20054;-72
2023/07/20 01:17:35;;;;;;;0.00;0.00;;;14.90;83.50;;;;;;5008532;28;20048;-71
2023/07/20 01:20:01;;;;;;;0.00;0.00;;;14.90;83.50;;;;;;4991475;28;20050;-72
2023/07/20 01:22:45;;;;;;;0.00;0.00;;;14.90;83.50;;;;;;4975672;28;20042;-72
2023/07/20 01:25:45;;;;;;;0.00;0.00;;;14.90;83.50;;;;;;5008794;28;20061;-72
2023/07/20 01:28:35;;;;;;;0.00;0.00;;;14.80;83.40;;;;;;5012503;28;20050;-72
2023/07/20 01:31:24;;;;;;;0.00;0.00;;;14.80;83.40;;;;;;5011975;28;20038;-72
2023/07/20 01:33:53;;;;;;;0.00;0.00;;;14.80;83.30;;;;;;4994806;28;20046;-72
2023/07/20 01:36:21;;;;;;;0.10;0.10;;;14.80;83.20;;;;;;5012152;28;20037;-72
2023/07/20 01:38:47;;;;;;;0.00;0.00;;;14.70;83.20;;;;;;4994618;28;20104;-72
2023/07/20 01:41:14;;;;;;;0.00;0.00;;;14.60;83.30;;;;;;5013105;28;20042;-72
2023/07/20 01:43:40;;;;;;;0.00;0.00;;;14.60;83.30;;;;;;4994063;28;20073;-72
2023/07/20 01:46:06;;;;;;;0.00;0.00;;;14.70;83.40;;;;;;4994905;28;20100;-72
2023/07/20 01:48:32;;;;;;;0.00;0.00;;;14.60;83.30;;;;;;5011834;28;20050;-72
2023/07/20 01:50:57;;;;;;;0.00;0.00;;;14.60;83.20;;;;;;4993537;28;20058;-72
2023/07/20 01:53:23;;;;;;;0.00;0.00;;;14.60;83.20;;;;;;4995667;28;20129;-72
2023/07/20 01:55:49;;;;;;;0.00;0.00;;;14.60;83.20;;;;;;4994517;28;20061;-72
2023/07/20 01:58:14;;;;;;;0.00;0.00;;;14.50;83.20;;;;;;5011972;28;20025;-72
2023/07/20 02:00:40;;;;;;;0.00;0.00;;;14.60;83.20;;;;;;4994142;28;20069;-72
2023/07/20 02:03:06;;;;;;;0.00;0.00;;;14.50;83.20;;;;;;5011723;28;20449;-72
2023/07/20 02:05:31;;;;;;;0.08;0.08;;;14.50;83.20;;;;;;4994320;28;20050;-72
2023/07/20 02:07:57;;;;;;;0.00;0.00;;;14.50;83.10;;;;;;5011043;28;20034;-72
2023/07/20 02:10:23;;;;;;;0.00;0.00;;;14.50;83.20;;;;;;5011790;28;20550;-72
2023/07/20 02:12:48;;;;;;;0.00;0.00;;;14.40;83.20;;;;;;5011216;28;20066;-73
2023/07/20 02:15:16;;;;;;;0.00;0.00;;;14.40;83.30;;;;;;5011426;28;20049;-72
2023/07/20 02:17:42;;;;;;;0.00;0.00;;;14.40;83.20;;;;;;5011700;28;20049;-72
2023/07/20 02:20:11;;;;;;;0.00;0.00;;;14.40;83.20;;;;;;4993647;28;20124;-72
2023/07/20 02:22:38;;;;;;;0.00;0.00;;;14.30;83.10;;;;;;5011496;28;20054;-72
2023/07/20 02:25:04;;;;;;;0.00;0.00;;;14.30;83.10;;;;;;5011209;28;20045;-72
2023/07/20 02:27:30;;;;;;;0.00;0.00;;;14.30;83.10;;;;;;5011463;28;20041;-72
2023/07/20 02:29:56;;;;;;;0.00;0.00;;;14.40;83.20;;;;;;4993625;28;20049;-73
2023/07/20 02:32:22;;;;;;;0.00;0.00;;;14.30;83.20;;;;;;5011243;28;20137;-72
2023/07/20 02:34:47;;;;;;;0.00;0.00;;;14.30;83.20;;;;;;5010931;28;20495;-72
2023/07/20 02:37:13;;;;;;;0.00;0.00;;;14.30;83.10;;;;;;5010591;28;20163;-72
2023/07/20 02:39:39;;;;;;;0.00;0.00;;;14.30;83.20;;;;;;5010809;28;20042;-73
2023/07/20 02:42:05;;;;;;;0.00;0.00;;;14.30;83.10;;;;;;5011781;28;20038;-73
2023/07/20 02:44:31;;;;;;;0.00;0.00;;;14.20;83.00;;;;;;5011718;28;20046;-72
2023/07/20 02:46:57;;;;;;;0.00;0.00;;;14.30;83.00;;;;;;5011136;28;20046;-72
2023/07/20 02:49:22;;;;;;;0.00;0.00;;;14.20;83.00;;;;;;5010372;28;20050;-72
2023/07/20 02:51:48;;;;;;;0.00;0.00;;;14.30;83.00;;;;;;4993472;28;20129;-72
2023/07/20 02:54:13;;;;;;;0.00;0.00;;;14.20;83.00;;;;;;5010573;28;20561;-72
2023/07/20 02:56:39;;;;;;;0.00;0.00;;;14.20;83.00;;;;;;5010914;28;20145;-72
2023/07/20 02:59:04;;;;;;;0.00;0.00;;;14.20;83.00;;;;;;4992539;28;20046;-71
2023/07/20 03:01:30;;;;;;;0.00;0.00;;;14.20;82.90;;;;;;4993841;28;20050;-72
2023/07/20 03:03:56;;;;;;;0.10;0.10;;;14.20;82.90;;;;;;4992845;28;20042;-72
2023/07/20 03:06:21;;;;;;;0.00;0.00;;;14.20;82.80;;;;;;5010799;28;20137;-72
2023/07/20 03:08:48;;;;;;;0.00;0.00;;;14.20;82.80;;;;;;5010007;28;20057;-72
2023/07/20 03:11:17;;;;;;;0.00;0.00;;;14.20;82.80;;;;;;5010564;28;20490;-72
2023/07/20 03:13:43;;;;;;;0.00;0.00;;;14.20;82.90;;;;;;5010682;28;20139;-72
2023/07/20 03:16:11;;;;;;;0.00;0.00;;;14.20;83.00;;;;;;5010647;28;20547;-72
2023/07/20 03:18:39;;;;;;;0.00;0.00;;;14.10;82.80;;;;;;5010155;28;20053;-72
2023/07/20 03:21:06;;;;;;;0.00;0.00;;;14.20;82.80;;;;;;4992471;28;20050;-72
2023/07/20 03:23:31;;;;;;;0.00;0.00;;;14.10;82.80;;;;;;4993001;28;20077;-73
2023/07/20 03:25:57;;;;;;;0.00;0.00;;;14.10;82.70;;;;;;4992810;28;20104;-72
2023/07/20 03:28:23;;;;;;;0.00;0.00;;;14.10;82.70;;;;;;4992783;28;20046;-72
2023/07/20 03:30:58;;;;;;;0.00;0.00;;;14.10;82.70;;;;;;5010351;28;20061;-72
2023/07/20 03:33:27;;;;;;;0.00;0.00;;;14.10;82.70;;;;;;4992652;28;20096;-72
2023/07/20 03:35:53;;;;;;;0.00;0.00;;;14.10;82.80;;;;;;5010508;28;20140;-72
2023/07/20 03:38:20;;;;;;;0.00;0.00;;;14.10;82.90;;;;;;5009980;28;20061;-72
2023/07/20 03:40:56;;;;;;;0.00;0.00;;;14.10;82.80;;;;;;5010240;28;20050;-72
2023/07/20 03:43:27;;;;;;;0.00;0.00;;;14.10;82.80;;;;;;4991633;28;20495;-72
2023/07/20 03:45:53;;;;;;;0.00;0.00;;;14.10;82.80;;;;;;5010016;28;20045;-72
2023/07/20 03:48:21;;;;;;;0.00;0.00;;;14.10;82.90;;;;;;4991995;28;20088;-72
2023/07/20 03:50:48;;;;;;;0.00;0.00;;;14.10;82.80;;;;;;4973426;28;20054;-72
2023/07/20 03:53:14;;;;;;;0.00;0.00;;;14.10;83.00;;;;;;4981265;28;20053;-72
2023/07/20 03:55:41;;;;;;;0.00;0.00;;;14.00;82.90;;;;;;4992820;28;20475;-71
2023/07/20 03:58:07;;;;;;;0.00;0.00;;;14.00;82.80;;;;;;4989863;28;20064;-71
2023/07/20 04:00:33;;;;;;;0.00;0.00;;;14.00;82.80;;;;;;4994174;28;20121;-72
2023/07/20 04:02:59;;;;;;;0.00;0.00;;;13.90;82.80;;;;;;4991693;28;20092;-72
2023/07/20 04:05:25;;;;;;;0.00;0.00;;;13.90;82.90;;;;;;5009523;28;20467;-72
2023/07/20 04:07:51;;;;;;;0.00;0.00;;;13.90;83.10;;;;;;4992578;28;20057;-71
2023/07/20 04:10:17;;;;;;;0.00;0.00;;;13.90;83.10;;;;;;4976565;28;20060;-72
2023/07/20 04:12:43;;;;;;;0.00;0.00;;;13.90;83.10;;;;;;5009134;28;20514;-72
2023/07/20 04:15:09;;;;;;;0.00;0.00;;;14.00;83.10;;;;;;5009373;28;20056;-72
2023/07/20 04:17:35;;;;;;;0.00;0.00;;;14.00;83.20;;;;;;4992167;28;20054;-71
2023/07/20 04:20:01;;;;;;;0.00;0.00;;;14.10;83.30;;;;;;5008815;28;20085;-72
2023/07/20 04:22:27;;;;;;;0.00;0.00;;;14.10;83.20;;;;;;4991668;28;20052;-72
2023/07/20 04:24:52;;;;;;;0.00;0.00;;;14.10;83.30;;;;;;5009171;28;20104;-72
2023/07/20 04:27:18;;;;;;;0.00;0.00;;;14.10;83.40;;;;;;5009385;28;20506;-72
2023/07/20 04:29:43;;;;;;;0.00;0.00;;;14.10;83.20;;;;;;5009420;28;20093;-72
2023/07/20 04:32:09;;;;;;;0.00;0.00;;;14.10;83.20;;;;;;4991536;28;20044;-72
2023/07/20 04:34:37;;;;;;;0.00;0.00;;;14.10;83.50;;;;;;5009053;28;20045;-72
2023/07/20 04:37:03;;;;;;;0.00;0.00;;;14.10;83.50;;;;;;4991869;28;20058;-72
2023/07/20 04:39:30;;;;;;;0.00;0.00;;;14.20;83.50;;;;;;5009355;28;20082;-72
2023/07/20 04:41:56;;;;;;;0.00;0.00;;;14.20;83.60;;;;;;5008744;28;20677;-72
2023/07/20 04:44:21;;;;;;;0.00;0.00;;;14.30;83.60;;;;;;5008797;28;20137;-72
2023/07/20 04:46:47;;;;;;;0.00;0.00;;;14.40;83.60;;;;;;5009304;28;20046;-72
2023/07/20 04:49:13;;;;;;;0.00;0.00;;;14.40;83.60;;;;;;4991011;28;20441;-72
2023/07/20 04:51:39;;;;;;;0.00;0.00;;;14.40;83.60;;;;;;5004842;28;20100;-72
2023/07/20 04:54:04;;;;;;;0.00;0.00;;;14.40;83.80;;;;;;4990778;28;20058;-72
2023/07/20 04:56:30;;;;;;;0.00;0.00;;;14.40;83.70;;;;;;5008091;28;20038;-72
2023/07/20 04:58:56;;;;;;;0.00;0.00;;;14.40;83.70;;;;;;5008017;28;20054;-72
2023/07/20 05:01:23;;;;;;;0.00;0.00;;;14.40;83.70;;;;;;4995361;28;20112;-71
2023/07/20 05:03:49;;;;;;;0.00;0.00;;;14.40;83.60;;;;;;4996281;28;20376;-71
2023/07/20 05:06:14;;;;;;;0.00;0.00;;;14.50;83.60;;;;;;5013735;28;20048;-71
2023/07/20 05:08:40;;;;;;;0.00;0.00;;;14.50;83.50;;;;;;5013480;28;20044;-71
2023/07/20 05:11:07;;;;;;;0.00;0.00;;;14.50;83.60;;;;;;4995338;28;20545;-72
2023/07/20 05:13:32;;;;;;;0.00;0.00;;;14.50;83.60;;;;;;4971945;28;20050;-72
2023/07/20 05:15:58;;;;;;;0.00;0.00;;;14.60;83.50;;;;;;4994737;28;20045;-71
2023/07/20 05:18:24;;;;;;;0.00;0.00;;;14.60;83.60;;;;;;4980363;28;20392;-71
2023/07/20 05:20:51;;;;;;;0.00;0.00;;;14.60;83.60;;;;;;4989704;28;20376;-71
2023/07/20 05:23:18;;;;;;;0.00;0.00;;;14.70;83.70;;;;;;4991833;28;20541;-71
2023/07/20 05:25:43;;;;;;;0.00;0.00;;;14.70;83.60;;;;;;5002599;28;20108;-71
2023/07/20 05:28:09;;;;;;;0.00;0.00;;;14.80;83.50;;;;;;4993107;28;20050;-72
2023/07/20 05:30:35;;;;;;;0.00;0.00;;;14.80;83.40;;;;;;4991467;28;20057;-72
2023/07/20 05:33:00;;;;;;;0.00;0.00;;;14.90;83.40;;;;;;5012339;28;20060;-72
2023/07/20 05:35:26;;;;;;;0.00;0.00;;;15.00;83.40;;;;;;4994297;28;20062;-71
2023/07/20 05:37:52;;;;;;;0.00;0.00;;;15.00;83.90;;;;;;5011663;28;20042;-71
2023/07/20 05:40:18;;;;;;;0.00;0.00;;;15.00;83.90;;;;;;4994159;28;20050;-71
2023/07/20 05:42:51;;;;;;;0.00;0.00;;;15.10;84.40;;;;;;4976724;28;20053;-72
2023/07/20 05:45:17;;;;;;;0.00;0.00;;;15.10;84.40;;;;;;5011671;28;20069;-71
2023/07/20 05:47:43;;;;;;;0.00;0.00;;;15.10;84.00;;;;;;4994120;28;20069;-71
2023/07/20 05:50:10;;;;;;;0.00;0.00;;;15.20;84.30;;;;;;5011893;28;20081;-71
2023/07/20 05:52:36;;;;;;;0.00;0.00;;;15.20;84.30;;;;;;5011151;28;20564;-70
2023/07/20 05:55:01;;;;;;;0.03;0.03;;;15.20;84.50;;;;;;5011059;28;20062;-71
2023/07/20 05:57:27;;;;;;;0.00;0.00;;;15.30;84.70;;;;;;4992189;28;20076;-71
2023/07/20 05:59:52;;;;;;;0.00;0.00;;;15.30;84.50;;;;;;5010942;28;20057;-72
2023/07/20 06:02:18;;;;;;;0.00;0.00;;;15.30;84.00;;;;;;4993528;28;20461;-71
2023/07/20 06:04:44;;;;;;;0.00;0.00;;;15.40;83.80;;;;;;4993599;28;20097;-71
2023/07/20 06:07:09;;;;;;;0.00;0.00;;;15.50;83.70;;;;;;5011016;28;20042;-71
2023/07/20 06:09:35;;;;;;;0.03;0.03;;;15.50;83.50;;;;;;5011091;28;20054;-70
2023/07/20 06:12:02;;;;;;;0.55;0.55;;;15.50;83.20;;;;;;4976172;28;20088;-71
2023/07/20 06:14:28;;;;;;;0.00;0.00;;;15.50;82.90;;;;;;5010935;28;20121;-69
2023/07/20 06:16:53;;;;;;;0.00;0.00;;;15.50;83.10;;;;;;5010176;28;21216;-69
2023/07/20 06:19:19;;;;;;;0.00;0.00;;;15.60;83.10;;;;;;5010363;28;20046;-70
2023/07/20 06:21:44;;;;;;;0.00;0.00;;;15.70;83.20;;;;;;4998937;28;20054;-70
2023/07/20 06:24:10;;;;;;;0.10;0.10;;;15.90;83.20;;;;;;4974426;28;20403;-70
2023/07/20 06:26:39;;;;;;;0.10;0.10;;;16.00;81.90;;;;;;4992277;28;20054;-70
2023/07/20 06:29:11;;;;;;;0.00;0.00;;;16.00;81.80;;;;;;4991845;28;20558;-70
2023/07/20 06:31:36;;;;;;;0.00;0.00;;;16.10;81.80;;;;;;4991962;28;20046;-70
2023/07/20 06:34:02;;;;;;;0.00;0.00;;;16.10;81.30;;;;;;4998121;28;20038;-71
2023/07/20 06:36:28;;;;;;;0.00;0.00;;;16.20;79.60;;;;;;5010954;28;20046;-70
2023/07/20 06:38:55;;;;;;;0.00;0.00;;;16.20;79.70;;;;;;5011272;28;20080;-71
2023/07/20 06:41:20;;;;;;;0.00;0.00;;;16.20;78.70;;;;;;5010621;28;20041;-65
2023/07/20 06:43:46;;;;;;;0.28;0.20;;;16.30;79.40;;;;;;5010850;28;20034;-76
2023/07/20 06:46:12;;;;;;;0.00;0.00;;;16.50;78.20;;;;;;5010191;28;20041;-70
2023/07/20 06:48:38;;;;;;;0.00;0.00;;;16.50;77.70;;;;;;5010359;28;20045;-67
2023/07/20 06:51:06;;;;;;;0.00;0.00;;;16.50;76.70;;;;;;5010686;28;20053;-66
2023/07/20 06:53:33;;;;;;;0.00;0.00;;;16.50;77.20;;;;;;5010121;28;20116;-66
2023/07/20 06:55:58;;;;;;;0.00;0.00;;;16.50;78.00;;;;;;5009974;28;20073;-69
2023/07/20 06:58:25;;;;;;;0.00;0.00;;;16.50;76.70;;;;;;4983476;28;20062;-69
2023/07/20 07:00:50;;;;;;;0.00;0.00;;;16.50;75.40;;;;;;4990589;28;20050;-70
2023/07/20 07:03:16;;;;;;;0.05;0.05;;;16.60;74.60;;;;;;4973900;28;20053;-70
2023/07/20 07:05:41;;;;;;;0.00;0.00;;;16.60;74.50;;;;;;4990473;28;20096;-69
2023/07/20 07:08:07;;;;;;;0.00;0.00;;;16.60;73.60;;;;;;5008534;28;20056;-70
2023/07/20 07:10:35;;;;;;;0.00;0.00;;;16.60;73.00;;;;;;5010351;28;20482;-70
2023/07/20 07:13:01;;;;;;;0.00;0.00;;;16.70;73.00;;;;;;5010386;28;20052;-70
2023/07/20 07:15:27;;;;;;;0.00;0.00;;;16.80;74.30;;;;;;5010760;28;20498;-70
2023/07/20 07:17:53;;;;;;;0.00;0.00;;;16.90;74.60;;;;;;5010239;28;20085;-71
2023/07/20 07:20:18;;;;;;;0.10;0.10;;;16.90;74.30;;;;;;5010587;28;20084;-71
2023/07/20 07:22:45;;;;;;;0.00;0.00;;;17.00;73.40;;;;;;5008417;28;20450;-70
2023/07/20 07:25:11;;;;;;;0.00;0.00;;;17.10;73.10;;;;;;4990291;28;20101;-69
2023/07/20 07:27:36;;;;;;;0.00;0.00;;;17.10;73.50;;;;;;4990620;28;20407;-70
2023/07/20 07:30:03;;;;;;;0.00;0.00;;;17.20;71.50;;;;;;4990348;28;20042;-70
2023/07/20 07:32:29;;;;;;;0.00;0.00;;;17.20;71.80;;;;;;4977949;28;20042;-71
2023/07/20 07:34:55;;;;;;;0.00;0.00;;;17.20;71.70;;;;;;5009011;28;20034;-70
2023/07/20 07:37:20;;;;;;;0.00;0.00;;;17.10;70.90;;;;;;4992059;28;20054;-70
2023/07/20 07:39:46;;;;;;;0.00;0.00;;;17.00;70.80;;;;;;5009591;28;20133;-70
2023/07/20 07:42:12;;;;;;;0.00;0.00;;;16.90;71.30;;;;;;5009701;28;20084;-70
2023/07/20 07:44:41;;;;;;;0.13;0.13;;;16.90;72.60;;;;;;5009541;28;20038;-71
2023/07/20 07:47:07;;;;;;;0.00;0.00;;;16.90;72.30;;;;;;5009145;28;20435;-70
2023/07/20 07:49:32;;;;;;;0.00;0.00;;;16.90;69.70;;;;;;5009743;28;20129;-70
2023/07/20 07:51:58;;;;;;;0.30;0.30;;;17.00;70.20;;;;;;5008953;28;20081;-70
2023/07/20 07:54:24;;;;;;;0.00;0.00;;;17.00;70.70;;;;;;5009630;28;20526;-70
2023/07/20 07:56:51;;;;;;;0.00;0.00;;;16.90;69.40;;;;;;5008003;28;20708;-70
2023/07/20 07:59:16;;;;;;;0.20;0.20;;;16.80;68.70;;;;;;4991918;28;20054;-70
2023/07/20 08:01:42;;;;;;;0.00;0.00;;;16.70;67.70;;;;;;4999835;28;20510;-70
2023/07/20 08:04:08;;;;;;;0.00;0.00;;;16.80;67.00;;;;;;5007924;28;20037;-70
2023/07/20 08:06:34;;;;;;;0.00;0.00;;;16.80;67.10;;;;;;5009325;28;20049;-70
2023/07/20 08:08:59;;;;;;;0.00;0.00;;;16.90;66.70;;;;;;5008463;28;20046;-70
2023/07/20 08:11:25;;;;;;;0.00;0.00;;;17.00;66.60;;;;;;5008992;28;20088;-70
2023/07/20 08:13:50;;;;;;;0.00;0.00;;;17.10;67.10;;;;;;5007919;28;20076;-70
2023/07/20 08:16:16;;;;;;;0.00;0.00;;;17.20;67.10;;;;;;5009255;28;20121;-69
2023/07/20 08:18:42;;;;;;;0.00;0.00;;;17.20;65.50;;;;;;5008489;28;20177;-70
2023/07/20 08:21:07;;;;;;;0.30;0.22;;;17.30;65.90;;;;;;5009054;28;20458;-69
2023/07/20 08:23:33;;;;;;;0.00;0.00;;;17.30;65.40;;;;;;5009215;28;20046;-70
2023/07/20 08:25:58;;;;;;;0.00;0.00;;;17.30;65.60;;;;;;5008541;28;20057;-69
2023/07/20 08:28:26;;;;;;;0.00;0.00;;;17.30;64.60;;;;;;5008737;28;20042;-69
2023/07/20 08:30:51;;;;;;;0.00;0.00;;;17.40;65.90;;;;;;5006898;28;20081;-70
2023/07/20 08:33:23;;;;;;;0.00;0.00;;;17.50;65.60;;;;;;5009260;28;20080;-70
2023/07/20 08:35:49;;;;;;;0.00;0.00;;;17.60;65.20;;;;;;4990099;28;20080;-70
2023/07/20 08:38:14;;;;;;;0.00;0.00;;;17.60;64.10;;;;;;5009706;28;20450;-70
2023/07/20 08:40:45;;;;;;;0.00;0.00;;;17.70;65.10;;;;;;4991181;28;20438;-70
2023/07/20 08:43:11;;;;;;;0.00;0.00;;;17.80;63.40;;;;;;5009132;28;20050;-70
2023/07/20 08:45:39;;;;;;;0.00;0.00;;;17.80;63.90;;;;;;5008576;28;20434;-69
2023/07/20 08:48:06;;;;;;;0.00;0.00;;;17.80;63.70;;;;;;5003732;28;20050;-70
2023/07/20 08:50:33;;;;;;;0.52;0.30;;;17.80;64.80;;;;;;5008975;28;20042;-70
2023/07/20 08:53:00;;;;;;;0.20;0.20;;;17.80;64.50;;;;;;5008695;28;20529;-69
2023/07/20 08:55:30;;;;;;;0.00;0.00;;;17.70;65.00;;;;;;5008916;28;20046;-70
2023/07/20 08:57:57;;;;;;;0.00;0.00;;;17.70;64.00;;;;;;5008273;28;20056;-70
2023/07/20 09:00:24;;;;;;;0.00;0.00;;;17.70;64.10;;;;;;5008159;28;20128;-70
2023/07/20 09:02:52;;;;;;;0.00;0.00;;;17.70;64.80;;;;;;5008444;28;20042;-70
2023/07/20 09:05:19;;;;;;;0.00;0.00;;;17.90;65.20;;;;;;5009086;28;20431;-70
2023/07/20 09:07:45;;;;;;;0.00;0.00;;;18.00;66.40;;;;;;5008153;28;20064;-70
2023/07/20 09:10:12;;;;;;;0.00;0.00;;;18.10;65.20;;;;;;5008910;28;20077;-70
2023/07/20 09:12:42;;;;;;;0.00;0.00;;;18.20;64.20;;;;;;4990968;28;20108;-69
2023/07/20 09:15:09;;;;;;;0.00;0.00;;;18.30;64.10;;;;;;5008514;28;20117;-70
2023/07/20 09:17:35;;;;;;;0.00;0.00;;;18.40;63.90;;;;;;5006322;28;20049;-70
2023/07/20 09:20:10;;;;;;;0.00;0.00;;;18.30;62.70;;;;;;5008373;28;20136;-70
2023/07/20 09:22:39;;;;;;;0.00;0.00;;;18.30;61.40;;;;;;5008400;28;20052;-69
2023/07/20 09:25:09;;;;;;;0.00;0.00;;;18.40;61.80;;;;;;4983879;28;20483;-70
2023/07/20 09:27:37;;;;;;;0.00;0.00;;;18.50;63.80;;;;;;5003533;28;20092;-70
2023/07/20 09:30:03;;;;;;;0.55;0.55;;;18.60;62.50;;;;;;4989538;28;20056;-70
2023/07/20 09:32:29;;;;;;;0.00;0.00;;;18.60;62.60;;;;;;5008531;28;20046;-70
2023/07/20 09:34:54;;;;;;;0.00;0.00;;;18.60;63.00;;;;;;4993962;28;20055;-70
2023/07/20 09:37:23;;;;;;;0.00;0.00;;;18.60;62.70;;;;;;4995389;28;20133;-70
2023/07/20 09:39:52;;;;;;;0.00;0.00;;;18.60;63.90;;;;;;5007907;28;20120;-71
2023/07/20 09:42:18;;;;;;;0.00;0.00;;;18.60;64.20;;;;;;4990611;28;20042;-70
2023/07/20 09:44:44;;;;;;;0.00;0.00;;;18.70;64.60;;;;;;4973734;28;20050;-70
2023/07/20 09:47:10;;;;;;;0.00;0.00;;;18.70;65.00;;;;;;5009100;28;20045;-70
2023/07/20 09:49:42;;;;;;;0.00;0.00;;;18.80;65.20;;;;;;5011048;28;20076;-70
2023/07/20 09:52:09;;;;;;;0.00;0.00;;;18.90;64.50;;;;;;5010065;28;20045;-70
2023/07/20 09:54:39;;;;;;;0.00;0.00;;;19.00;64.40;;;;;;5012015;28;20399;-70
2023/07/20 09:57:08;;;;;;;0.00;0.00;;;19.00;63.90;;;;;;5007609;28;20077;-70
2023/07/20 09:59:34;;;;;;;0.40;0.30;;;19.10;64.00;;;;;;5010646;28;20046;-70
2023/07/20 10:02:03;;;;;;;0.00;0.00;;;19.00;61.80;;;;;;5011310;28;20045;-69
2023/07/20 10:04:30;;;;;;;0.00;0.00;;;19.00;61.70;;;;;;5005471;28;20475;-70
2023/07/20 10:06:58;;;;;;;0.47;0.47;;;18.90;59.90;;;;;;5010707;28;20125;-70
2023/07/20 10:09:25;;;;;;;1.65;1.00;;;18.90;61.80;;;;;;5010136;28;20450;-70
2023/07/20 10:11:51;;;;;;;0.00;0.00;;;18.80;62.90;;;;;;4966211;28;20491;-70
2023/07/20 10:14:20;;;;;;;0.00;0.00;;;18.80;61.70;;;;;;4996348;28;20129;-70
2023/07/20 10:16:51;;;;;;;0.00;0.00;;;18.90;62.30;;;;;;4988266;28;20046;-70
2023/07/20 10:19:47;;;;;;;0.00;0.00;;;19.00;61.90;;;;;;4973433;28;20060;-69
2023/07/20 10:22:16;;;;;;;0.00;0.00;;;19.10;61.70;;;;;;5000925;28;20049;-69
2023/07/20 10:24:49;;;;;;;1.55;0.28;;;19.30;62.50;;;;;;4998627;28;20051;-71
2023/07/20 10:27:15;;;;;;;0.00;0.00;;;19.30;62.20;;;;;;5000212;28;20150;-70
2023/07/20 10:29:42;;;;;;;0.00;0.00;;;19.30;60.10;;;;;;5000027;28;20100;-70
2023/07/20 10:32:09;;;;;;;0.00;0.00;;;19.30;60.70;;;;;;4999554;28;20124;-69
2023/07/20 10:34:35;;;;;;;0.00;0.00;;;19.30;61.60;;;;;;4999124;28;20126;-69
2023/07/20 10:37:01;;;;;;;0.00;0.00;;;19.50;62.20;;;;;;4999405;28;20761;-70
2023/07/20 10:39:30;;;;;;;0.00;0.00;;;19.60;61.30;;;;;;5000232;28;20653;-69
2023/07/20 10:42:10;;;;;;;0.03;0.03;;;19.60;61.00;;;;;;4998795;28;20435;-69
2023/07/20 10:44:40;;;;;;;0.00;0.00;;;19.40;60.40;;;;;;4996104;28;20045;-70
2023/07/20 10:47:13;;;;;;;0.00;0.00;;;19.30;61.00;;;;;;4999213;28;20056;-70
2023/07/20 10:49:58;;;;;;;0.00;0.00;;;19.00;61.10;;;;;;5012245;28;20073;-70
2023/07/20 10:52:24;;;;;;;0.00;0.00;;;19.00;62.60;;;;;;4999490;28;20530;-70
2023/07/20 10:54:50;;;;;;;0.00;0.00;;;19.10;62.00;;;;;;4981383;28;20065;-70
2023/07/20 10:57:30;;;;;;;0.00;0.00;;;19.10;60.70;;;;;;4999043;28;20425;-70
2023/07/20 11:00:11;;;;;;;0.33;0.33;;;19.20;60.60;;;;;;4998842;28;20053;-70
2023/07/20 11:02:52;;;;;;;0.00;0.00;;;19.50;61.70;;;;;;4999122;28;20501;-71
2023/07/20 11:05:35;;;;;;;0.00;0.00;;;19.50;57.80;;;;;;4998954;28;20042;-70
2023/07/20 11:08:04;;;;;;;0.00;0.00;;;19.50;57.00;;;;;;4998425;28;20096;-70
2023/07/20 11:10:30;;;;;;;0.00;0.00;;;19.30;57.80;;;;;;4999655;28;20049;-70
2023/07/20 11:13:21;;;;;;;0.10;0.10;;;19.30;58.60;;;;;;4998004;28;20406;-69
2023/07/20 11:16:05;;;;;;;0.00;0.00;;;19.30;58.30;;;;;;4965098;28;20050;-70
2023/07/20 11:18:38;;;;;;;0.10;0.10;;;19.50;59.20;;;;;;4997162;28;20046;-70
2023/07/20 11:21:07;;;;;;;0.00;0.00;;;19.70;58.70;;;;;;4981054;28;20507;-70
2023/07/20 11:23:33;;;;;;;0.52;0.35;;;20.00;58.00;;;;;;4999218;28;20483;-70
2023/07/20 11:26:00;;;;;;;0.00;0.00;;;20.00;56.50;;;;;;4997113;28;20054;-70
2023/07/20 11:28:26;;;;;;;0.00;0.00;;;20.00;56.20;;;;;;4999252;28;20096;-69
2023/07/20 11:30:53;;;;;;;0.00;0.00;;;19.80;57.40;;;;;;4996328;28;20437;-70
2023/07/20 11:33:19;;;;;;;0.00;0.00;;;19.60;57.50;;;;;;4998915;28;20052;-70
2023/07/20 11:35:46;;;;;;;0.00;0.00;;;19.60;58.60;;;;;;4999665;28;20038;-70
2023/07/20 11:38:13;;;;;;;0.55;0.55;;;19.70;58.60;;;;;;4998513;28;20078;-70
2023/07/20 11:40:44;;;;;;;0.00;0.00;;;19.70;56.70;;;;;;4996618;28;20049;-69
2023/07/20 11:43:11;;;;;;;0.00;0.00;;;19.80;57.80;;;;;;4998763;28;20124;-70
2023/07/20 11:45:38;;;;;;;0.00;0.00;;;19.80;56.70;;;;;;4998328;28;20132;-70
2023/07/20 11:48:04;;;;;;;0.00;0.00;;;19.80;56.20;;;;;;4996726;28;20041;-70
2023/07/20 11:50:29;;;;;;;0.00;0.00;;;19.80;55.70;;;;;;4998819;28;20493;-70
2023/07/20 11:52:56;;;;;;;0.00;0.00;;;19.80;57.00;;;;;;4996458;28;20042;-69
2023/07/20 11:55:22;;;;;;;0.00;0.00;;;20.00;56.20;;;;;;4978936;28;20559;-70
2023/07/20 11:58:05;;;;;;;9.85;1.23;;;20.10;54.60;;;;;;4994945;28;20038;-70
2023/07/20 12:00:34;;;;;;;0.05;0.05;;;20.20;51.00;;;;;;4993716;28;20050;-70
2023/07/20 12:03:00;;;;;;;0.00;0.00;;;20.30;52.90;;;;;;4995969;28;20100;-70
2023/07/20 12:05:26;;;;;;;0.00;0.00;;;20.40;53.10;;;;;;4998557;28;20037;-71
2023/07/20 12:07:52;;;;;;;0.00;0.00;;;20.50;55.40;;;;;;4998418;28;20037;-70
2023/07/20 12:10:25;;;;;;;0.00;0.00;;;20.50;55.60;;;;;;4998651;28;20045;-71
2023/07/20 12:12:50;;;;;;;0.00;0.00;;;20.60;56.10;;;;;;4997992;28;20045;-71
2023/07/20 12:15:26;;;;;;;0.00;0.00;;;20.60;54.00;;;;;;4997262;28;20045;-70
2023/07/20 12:17:53;;;;;;;0.00;0.00;;;20.40;54.10;;;;;;4997066;28;20128;-70
2023/07/20 12:20:28;;;;;;;0.00;0.00;;;20.20;54.00;;;;;;4981151;28;20045;-70
2023/07/20 12:23:00;;;;;;;0.00;0.00;;;20.10;53.80;;;;;;4996715;28;20052;-70
2023/07/20 12:25:42;;;;;;;0.00;0.00;;;20.30;55.20;;;;;;4997137;28;20077;-70
2023/07/20 12:28:13;;;;;;;0.00;0.00;;;20.40;53.10;;;;;;4979596;28;20083;-70
2023/07/20 12:30:40;;;;;;;0.30;0.30;;;20.20;52.60;;;;;;4996805;28;20059;-70
2023/07/20 12:33:06;;;;;;;0.00;0.00;;;20.40;54.00;;;;;;4979880;28;20277;-70
2023/07/20 12:35:32;;;;;;;0.00;0.00;;;20.60;54.40;;;;;;4997274;28;20049;-70
2023/07/20 12:37:58;;;;;;;0.00;0.00;;;20.70;53.00;;;;;;4997616;28;20413;-70
2023/07/20 12:40:24;;;;;;;0.00;0.00;;;20.80;50.50;;;;;;4996911;28;20038;-69
2023/07/20 12:42:49;;;;;;;0.00;0.00;;;21.00;52.00;;;;;;4997913;28;20040;-70
2023/07/20 12:45:15;;;;;;;0.00;0.00;;;21.10;51.20;;;;;;4997103;28;20060;-70
2023/07/20 12:47:43;;;;;;;0.00;0.00;;;21.00;50.70;;;;;;4996493;28;20083;-71
2023/07/20 12:50:09;;;;;;;0.00;0.00;;;20.90;48.20;;;;;;4996382;28;20053;-70